Hyderabad, India

4:52 PM IST on December 05, 2016 (GMT +0530)
Hyderabad | | Change Station

Elev 1788 ft 17.45 °N, 78.47 °E | Updated 22 minutes ago

Clear
Clear
88 °F
Feels Like 86 °F
N
5
Wind Variable Wind from North

Today
High -- | Low -- °F
--% Chance of Precip.
Yesterday
High -- | Low -- °F
Precip. -- in
Pressure 30.01 in
Visibility 3.7 miles
Clouds
Heat Index 86 °F
Dew Point 57 °F
Humidity 35%
Rainfall 0.00 in
Snow Depth Not available.
6:32 AM 5:40 PM
Waxing Crescent, 31% visible
METAR VOHY 051100Z 01004KT 6000 NSC 31/14 Q1016 NOSIG
Pressure 30.01 in
Visibility 3.7 miles
Clouds
Heat Index 86 °F
Dew Point 57 °F
Humidity 35%
Rainfall 0.00 in
Snow Depth Not available.
6:32 AM 5:40 PM
Waxing Crescent, 31% visible
METAR VOHY 051100Z 01004KT 6000 NSC 31/14 Q1016 NOSIG

10-Day Weather Forecast

No radar image for this location.
×

Almanac

Astronomy

Dec. 05, 2016 Rise Set
Actual Time
Civil Twilight
Nautical Twilight
Astronomical Twilight
Moon
Length of Visible Light
Length of Day
Tomorrow will be .
, % of the Moon is Illuminated

Today's Extremes

Country Highs Country Lows

Community

WunderPhotos

Upload Photos

1,955,777 photos uploaded!

WunderBlog® & News

Nearby

Air Quality

  Air Quality AQ Index Pollutant
Not available.

Snow Depth

Station Depth Elevation

Earthquake Activity

City Distance Mag. Time & Date
Minimum magnitude displayed is 2.5.

Coastal Water Temperatures

Place Temperature

Stations

Nearby Weather Stations

Station Location Temp. Windchill Dew Point Humidity Wind Precip. Elev Updated Type